Time;durP1;ratioP1;P1;durP2;ratioP2;P2;SDS_P1;SDS_P2;PMS_P1;PMS_P2;Temp;Humidity;BMP_temperature;BMP_pressure;BME280_temperature;BME280_humidity;BME280_pressure;Samples;Min_cycle;Max_cycle;Signal;HPM_P1;HPM_P2
2024/01/10 00:02:21;;;;;;;17.52;8.50;;;2.60;65.20;;;;;;2276884;55;20948;-66
2024/01/10 00:04:48;;;;;;;22.15;10.55;;;2.50;65.20;;;;;;2277130;55;20943;-65
2024/01/10 00:07:14;;;;;;;23.35;10.63;;;2.50;65.20;;;;;;2276804;56;21067;-67
2024/01/10 00:09:40;;;;;;;19.67;9.55;;;2.50;65.20;;;;;;2277287;56;20952;-67
2024/01/10 00:12:08;;;;;;;23.65;11.07;;;2.50;65.20;;;;;;2509448;54;20937;-65
2024/01/10 00:14:34;;;;;;;18.45;9.60;;;2.50;65.20;;;;;;2277574;56;20948;-65
2024/01/10 00:17:00;;;;;;;21.40;9.77;;;2.50;65.30;;;;;;2509427;54;20976;-66
2024/01/10 00:19:27;;;;;;;23.65;10.43;;;2.50;65.40;;;;;;2276925;56;20984;-65
2024/01/10 00:21:53;;;;;;;23.85;11.73;;;2.50;65.40;;;;;;2277313;56;21271;-66
2024/01/10 00:24:20;;;;;;;23.50;11.23;;;2.50;65.40;;;;;;2508715;54;20979;-65
2024/01/10 00:26:47;;;;;;;27.30;12.35;;;2.60;65.50;;;;;;2277373;55;20955;-66
2024/01/10 00:29:13;;;;;;;22.20;10.55;;;2.60;65.60;;;;;;2277816;55;20928;-67
2024/01/10 00:31:40;;;;;;;23.17;10.43;;;2.60;65.70;;;;;;2277323;56;21370;-64
2024/01/10 00:34:10;;;;;;;23.45;10.50;;;2.60;65.70;;;;;;2277013;56;20959;-66
2024/01/10 00:36:36;;;;;;;19.00;9.38;;;2.60;65.60;;;;;;2511523;54;21703;-65
2024/01/10 00:39:02;;;;;;;18.37;8.68;;;2.60;65.60;;;;;;2279960;55;21003;-64
2024/01/10 00:41:29;;;;;;;21.08;9.60;;;2.60;65.60;;;;;;2277033;55;21464;-66
2024/01/10 00:43:55;;;;;;;24.08;10.65;;;2.60;65.50;;;;;;2279514;55;21003;-67
2024/01/10 00:46:21;;;;;;;21.10;9.90;;;2.60;65.50;;;;;;2508349;54;21922;-65
2024/01/10 00:48:48;;;;;;;24.77;11.80;;;2.60;65.40;;;;;;2277407;56;21286;-66
2024/01/10 00:51:14;;;;;;;23.95;11.52;;;2.60;65.40;;;;;;2277693;55;20956;-67
2024/01/10 00:53:42;;;;;;;20.98;10.85;;;2.60;65.30;;;;;;2509690;55;21307;-67
2024/01/10 00:56:08;;;;;;;25.40;11.55;;;2.60;65.10;;;;;;2508987;54;21276;-66
2024/01/10 00:58:35;;;;;;;23.27;12.13;;;2.60;65.00;;;;;;2277498;56;21012;-65
2024/01/10 01:01:01;;;;;;;23.23;11.35;;;2.60;65.00;;;;;;2276927;56;21881;-66
2024/01/10 01:03:28;;;;;;;23.85;10.82;;;2.50;64.90;;;;;;2277329;55;20991;-66
2024/01/10 01:05:54;;;;;;;24.85;11.55;;;2.50;64.90;;;;;;2277648;55;20940;-65
2024/01/10 01:08:21;;;;;;;21.17;10.70;;;2.50;65.00;;;;;;2281285;55;21030;-64
2024/01/10 01:10:47;;;;;;;21.10;10.70;;;2.50;65.00;;;;;;2513543;53;20957;-65
2024/01/10 01:13:13;;;;;;;23.52;11.60;;;2.50;65.10;;;;;;2279585;54;20940;-66
2024/01/10 01:15:39;;;;;;;23.12;11.32;;;2.50;65.20;;;;;;2512972;53;21070;-65
2024/01/10 01:18:06;;;;;;;23.48;11.02;;;2.50;65.30;;;;;;2277712;56;20985;-66
2024/01/10 01:20:35;;;;;;;21.60;10.38;;;2.50;65.30;;;;;;2282663;55;20962;-66
2024/01/10 01:23:02;;;;;;;22.37;10.75;;;2.50;65.30;;;;;;2510127;53;20948;-65
2024/01/10 01:25:28;;;;;;;23.10;9.98;;;2.50;65.40;;;;;;2512236;53;20942;-65
2024/01/10 01:27:56;;;;;;;23.52;11.02;;;2.50;65.30;;;;;;2277528;56;20968;-67
2024/01/10 01:30:22;;;;;;;18.23;9.20;;;2.50;65.30;;;;;;2276982;56;21028;-65
2024/01/10 01:32:49;;;;;;;20.30;9.82;;;2.50;65.20;;;;;;2275991;56;20974;-64
2024/01/10 01:35:21;;;;;;;20.95;9.43;;;2.50;65.10;;;;;;2280296;55;20946;-64
2024/01/10 01:37:48;;;;;;;22.17;10.30;;;2.50;65.20;;;;;;2509837;53;21814;-67
2024/01/10 01:40:14;;;;;;;18.73;10.18;;;2.50;65.20;;;;;;2281190;55;21515;-65
2024/01/10 01:42:41;;;;;;;18.92;9.13;;;2.50;65.20;;;;;;2279014;55;20980;-66
2024/01/10 01:45:07;;;;;;;16.37;8.85;;;2.50;65.20;;;;;;2276891;56;20948;-65
2024/01/10 01:47:34;;;;;;;17.80;9.10;;;2.50;65.20;;;;;;2276718;56;20968;-65
2024/01/10 01:50:00;;;;;;;21.58;9.65;;;2.50;65.10;;;;;;2277277;56;20932;-64
2024/01/10 01:52:27;;;;;;;19.95;9.77;;;2.40;65.00;;;;;;2282957;55;21558;-65
2024/01/10 01:54:54;;;;;;;19.87;9.90;;;2.40;65.00;;;;;;2509398;54;21398;-66
2024/01/10 01:57:20;;;;;;;21.42;9.65;;;2.40;65.00;;;;;;2276537;56;20960;-67
2024/01/10 01:59:46;;;;;;;22.30;10.73;;;2.40;64.90;;;;;;2512702;53;20994;-66
2024/01/10 02:02:13;;;;;;;20.77;10.32;;;2.40;65.60;;;;;;2284648;55;20961;-65
2024/01/10 02:04:39;;;;;;;22.08;10.10;;;2.40;64.90;;;;;;2279015;54;20976;-66
2024/01/10 02:07:05;;;;;;;20.30;10.00;;;2.40;64.80;;;;;;2280152;55;20956;-65
2024/01/10 02:09:32;;;;;;;18.23;8.95;;;2.40;64.80;;;;;;2279036;55;20949;-65
2024/01/10 02:11:58;;;;;;;18.27;8.52;;;2.40;64.80;;;;;;2282948;55;21046;-66
2024/01/10 02:14:24;;;;;;;22.92;9.27;;;2.30;64.70;;;;;;2277558;55;21475;-67
2024/01/10 02:16:50;;;;;;;19.48;9.18;;;2.30;64.80;;;;;;2278024;56;21004;-67
2024/01/10 02:19:21;;;;;;;19.42;9.15;;;2.30;64.80;;;;;;2276967;56;21394;-66
2024/01/10 02:21:47;;;;;;;16.83;8.40;;;2.30;64.70;;;;;;2276984;56;21044;-66
2024/01/10 02:24:13;;;;;;;18.98;8.90;;;2.30;64.70;;;;;;2277132;56;21025;-66
2024/01/10 02:26:39;;;;;;;18.85;8.23;;;2.30;64.70;;;;;;2280545;56;20945;-66
2024/01/10 02:29:06;;;;;;;17.40;8.52;;;2.30;64.70;;;;;;2280104;54;21004;-66
2024/01/10 02:31:32;;;;;;;17.85;8.60;;;2.30;64.60;;;;;;2276759;55;20972;-66
2024/01/10 02:34:01;;;;;;;17.77;8.93;;;2.30;64.60;;;;;;2509141;54;20952;-65
2024/01/10 02:36:27;;;;;;;15.10;7.80;;;2.30;64.60;;;;;;2508999;54;21307;-65
2024/01/10 02:38:54;;;;;;;17.02;8.20;;;2.30;64.60;;;;;;2277557;56;21076;-67
2024/01/10 02:41:20;;;;;;;18.70;8.65;;;2.30;64.70;;;;;;2276925;56;20960;-66
2024/01/10 02:43:47;;;;;;;22.42;10.18;;;2.20;64.60;;;;;;2509115;54;20980;-66
2024/01/10 02:46:14;;;;;;;19.02;9.13;;;2.20;64.60;;;;;;2276569;55;20964;-66
2024/01/10 02:48:40;;;;;;;16.98;7.93;;;2.30;64.70;;;;;;2276401;56;20952;-65
2024/01/10 02:51:07;;;;;;;16.33;8.10;;;2.30;64.80;;;;;;2277483;56;21489;-66
2024/01/10 02:53:34;;;;;;;23.08;9.55;;;2.20;64.70;;;;;;2277245;56;20996;-65
2024/01/10 02:56:06;;;;;;;17.37;8.23;;;2.20;64.70;;;;;;2277312;56;21004;-64
2024/01/10 02:58:33;;;;;;;18.23;8.45;;;2.30;64.80;;;;;;2277476;55;21091;-66
2024/01/10 03:01:01;;;;;;;14.75;7.15;;;2.30;64.80;;;;;;2276776;56;20971;-67
2024/01/10 03:03:27;;;;;;;14.52;7.05;;;2.20;64.80;;;;;;2509223;54;20960;-67
2024/01/10 03:05:53;;;;;;;17.87;8.98;;;2.20;64.80;;;;;;2277273;56;21060;-66
2024/01/10 03:08:19;;;;;;;22.13;10.35;;;2.20;64.80;;;;;;2277241;55;21545;-67
2024/01/10 03:10:49;;;;;;;21.05;10.60;;;2.20;64.80;;;;;;2509357;54;21024;-65
2024/01/10 03:13:15;;;;;;;23.77;10.77;;;2.20;64.90;;;;;;2276600;55;21031;-67
2024/01/10 03:15:47;;;;;;;21.17;9.60;;;2.30;64.90;;;;;;2277425;55;21074;-66
2024/01/10 03:18:14;;;;;;;18.48;8.82;;;2.20;64.90;;;;;;2277300;55;20957;-65
2024/01/10 03:20:42;;;;;;;17.30;9.20;;;2.30;64.90;;;;;;2509486;54;21011;-65
2024/01/10 03:23:08;;;;;;;16.45;8.52;;;2.20;64.90;;;;;;2509568;55;20964;-67
2024/01/10 03:25:36;;;;;;;14.18;7.80;;;2.30;64.90;;;;;;2508860;54;21440;-64
2024/01/10 03:28:02;;;;;;;16.73;8.32;;;2.20;64.80;;;;;;2276565;55;21481;-66
2024/01/10 03:30:31;;;;;;;18.58;8.75;;;2.20;64.80;;;;;;2276731;55;20948;-65
2024/01/10 03:33:01;;;;;;;17.75;8.43;;;2.20;64.80;;;;;;2277312;55;20992;-67
2024/01/10 03:35:28;;;;;;;18.80;9.05;;;2.20;64.70;;;;;;2262486;55;21948;-66
2024/01/10 03:37:56;;;;;;;17.73;8.35;;;2.20;64.70;;;;;;2281539;56;21046;-65
2024/01/10 03:40:22;;;;;;;21.90;9.82;;;2.20;64.70;;;;;;2290171;54;21789;-66
2024/01/10 03:42:49;;;;;;;20.02;8.82;;;2.20;64.70;;;;;;2289898;55;21066;-65
2024/01/10 03:45:18;;;;;;;17.90;8.52;;;2.20;64.70;;;;;;2277234;55;21203;-65
2024/01/10 03:47:50;;;;;;;19.45;8.95;;;2.20;64.80;;;;;;2276666;56;21044;-67
2024/01/10 03:50:17;;;;;;;19.65;8.85;;;2.20;64.80;;;;;;2277126;56;21851;-66
2024/01/10 03:52:45;;;;;;;18.85;9.38;;;2.20;64.70;;;;;;2509414;54;21649;-64
2024/01/10 03:55:13;;;;;;;19.77;8.43;;;2.10;64.60;;;;;;2277213;55;21695;-65
2024/01/10 03:57:39;;;;;;;18.87;8.68;;;2.10;64.60;;;;;;2277146;55;22733;-66
2024/01/10 04:00:06;;;;;;;18.25;8.50;;;2.10;64.50;;;;;;2277241;55;21024;-64
2024/01/10 04:02:36;;;;;;;16.30;8.23;;;2.10;64.50;;;;;;2508611;54;21292;-66
2024/01/10 04:05:03;;;;;;;19.77;8.52;;;2.10;64.40;;;;;;2509169;54;20960;-65
2024/01/10 04:07:29;;;;;;;17.35;8.95;;;2.10;64.40;;;;;;2277266;55;21453;-65
2024/01/10 04:09:55;;;;;;;20.23;9.68;;;2.10;64.40;;;;;;2509503;54;20952;-65
2024/01/10 04:12:22;;;;;;;17.87;8.38;;;2.00;64.30;;;;;;2277305;56;21016;-66
2024/01/10 04:14:48;;;;;;;16.83;7.97;;;2.00;64.30;;;;;;2509533;54;20972;-65
2024/01/10 04:17:14;;;;;;;20.33;9.23;;;2.00;64.30;;;;;;2277530;55;21020;-65
2024/01/10 04:19:41;;;;;;;16.83;8.10;;;2.00;64.40;;;;;;2277174;55;21001;-66
2024/01/10 04:22:07;;;;;;;18.05;8.15;;;2.00;64.40;;;;;;2508310;55;20976;-66
2024/01/10 04:24:34;;;;;;;14.80;7.97;;;1.90;64.30;;;;;;2508464;54;20972;-66
2024/01/10 04:27:00;;;;;;;18.02;7.65;;;1.90;64.30;;;;;;2276915;55;21067;-67
2024/01/10 04:29:26;;;;;;;18.10;8.88;;;1.90;64.40;;;;;;2277002;55;20949;-66
2024/01/10 04:31:53;;;;;;;19.50;9.20;;;1.90;64.40;;;;;;2508892;54;20960;-66
2024/01/10 04:34:22;;;;;;;14.82;7.95;;;1.90;64.40;;;;;;2509074;55;21040;-65
2024/01/10 04:36:49;;;;;;;18.48;9.02;;;1.80;64.40;;;;;;2277009;55;21039;-66
2024/01/10 04:39:16;;;;;;;16.92;8.23;;;1.80;64.40;;;;;;2277497;55;21042;-65
2024/01/10 04:41:42;;;;;;;17.98;8.25;;;1.80;64.40;;;;;;2277306;55;21017;-66
2024/01/10 04:44:08;;;;;;;15.18;7.75;;;1.80;64.40;;;;;;2509411;54;20936;-66
2024/01/10 04:46:34;;;;;;;17.40;8.27;;;1.80;64.40;;;;;;2276488;56;21824;-66
2024/01/10 04:49:01;;;;;;;16.20;7.53;;;1.80;64.40;;;;;;2277037;55;21024;-65
2024/01/10 04:51:27;;;;;;;18.10;8.70;;;1.70;64.30;;;;;;2277415;55;21000;-65
2024/01/10 04:53:55;;;;;;;18.10;8.63;;;1.70;64.30;;;;;;2277468;56;21264;-64
2024/01/10 04:56:21;;;;;;;16.87;8.75;;;1.70;64.30;;;;;;2277298;55;20932;-67
2024/01/10 04:58:48;;;;;;;19.98;10.13;;;1.70;64.30;;;;;;2276906;56;21007;-65
2024/01/10 05:01:14;;;;;;;17.27;8.27;;;1.70;64.30;;;;;;2277375;55;20984;-64
2024/01/10 05:03:41;;;;;;;24.67;9.75;;;1.60;64.20;;;;;;2277140;55;20956;-64
2024/01/10 05:06:07;;;;;;;17.98;8.50;;;1.60;64.90;;;;;;2276946;56;20951;-65
2024/01/10 05:08:35;;;;;;;22.17;10.52;;;1.60;64.20;;;;;;2277431;55;20956;-66
2024/01/10 05:11:01;;;;;;;20.27;9.63;;;1.50;64.10;;;;;;2277130;56;21111;-66
2024/01/10 05:13:27;;;;;;;15.95;8.63;;;1.50;64.00;;;;;;2277154;56;21525;-66
2024/01/10 05:15:55;;;;;;;23.08;10.75;;;1.50;64.10;;;;;;2277228;55;20940;-66
2024/01/10 05:18:21;;;;;;;23.77;10.68;;;1.50;64.10;;;;;;2276887;55;21040;-65
2024/01/10 05:20:47;;;;;;;17.52;8.90;;;1.50;64.20;;;;;;2277011;55;20945;-66
2024/01/10 05:23:14;;;;;;;20.33;9.93;;;1.50;64.30;;;;;;2276488;56;21260;-66
2024/01/10 05:25:40;;;;;;;17.25;8.02;;;1.40;64.20;;;;;;2277000;56;21047;-66
2024/01/10 05:28:07;;;;;;;23.67;9.48;;;1.40;64.20;;;;;;2277063;55;20956;-66
2024/01/10 05:30:33;;;;;;;18.27;9.07;;;1.40;64.20;;;;;;2509394;54;21289;-65
2024/01/10 05:33:00;;;;;;;22.33;9.98;;;1.30;64.00;;;;;;2276706;55;21009;-65
2024/01/10 05:35:26;;;;;;;18.77;8.65;;;1.30;64.00;;;;;;2280690;55;20920;-65
2024/01/10 05:37:54;;;;;;;22.85;10.40;;;1.30;64.00;;;;;;2276252;55;21007;-66
2024/01/10 05:40:21;;;;;;;19.02;9.43;;;1.30;64.00;;;;;;2286924;55;21545;-67
2024/01/10 05:42:49;;;;;;;19.45;9.85;;;1.20;63.80;;;;;;2276272;54;21060;-65
2024/01/10 05:45:17;;;;;;;19.20;9.43;;;1.20;63.90;;;;;;2509857;54;20946;-63
2024/01/10 05:47:44;;;;;;;20.55;9.75;;;1.20;63.90;;;;;;2278412;54;21450;-65
2024/01/10 05:50:12;;;;;;;19.20;9.05;;;1.20;63.90;;;;;;2276229;56;20932;-65
2024/01/10 05:52:38;;;;;;;18.48;8.85;;;1.10;63.80;;;;;;2276127;56;21766;-65
2024/01/10 05:55:06;;;;;;;15.88;6.57;;;1.10;63.80;;;;;;2277049;55;20945;-64
2024/01/10 05:57:32;;;;;;;13.70;6.90;;;1.00;63.80;;;;;;2282542;55;21053;-65
2024/01/10 05:59:58;;;;;;;18.37;8.05;;;1.00;63.80;;;;;;2509801;53;21457;-67
2024/01/10 06:02:27;;;;;;;24.92;10.15;;;1.00;63.80;;;;;;2509386;54;21048;-65
2024/01/10 06:04:57;;;;;;;;;;;1.00;63.70;;;;;;2512054;54;21087;-66
2024/01/10 06:07:24;;;;;;;24.20;9.05;;;0.90;62.70;;;;;;2509209;54;20116;-66
2024/01/10 06:09:52;;;;;;;25.48;10.45;;;0.90;63.50;;;;;;2295599;55;20979;-66
2024/01/10 06:12:19;;;;;;;25.70;11.40;;;0.90;63.60;;;;;;2283589;54;21041;-64
2024/01/10 06:14:46;;;;;;;24.33;10.50;;;0.80;63.50;;;;;;2283904;55;20978;-66
2024/01/10 06:17:16;;;;;;;19.50;9.05;;;0.80;63.50;;;;;;2275980;55;21154;-64
2024/01/10 06:19:53;;;;;;;26.00;10.80;;;0.70;63.50;;;;;;2283889;55;21038;-67
2024/01/10 06:22:24;;;;;;;23.52;9.60;;;0.70;63.50;;;;;;2508212;54;20941;-66
2024/01/10 06:24:54;;;;;;;21.45;8.65;;;0.70;63.50;;;;;;2507941;54;21301;-65
2024/01/10 06:27:21;;;;;;;24.58;10.90;;;0.60;63.40;;;;;;2277465;55;21507;-64
2024/01/10 06:29:51;;;;;;;26.30;12.13;;;0.60;63.50;;;;;;2281749;55;20960;-66
2024/01/10 06:32:34;;;;;;;26.00;11.25;;;0.50;63.40;;;;;;2510076;54;21049;-64
2024/01/10 06:35:04;;;;;;;22.80;10.60;;;0.50;63.40;;;;;;2512471;53;21399;-64
2024/01/10 06:37:33;;;;;;;22.63;10.47;;;0.50;63.40;;;;;;2511023;53;22354;-64
2024/01/10 06:40:04;;;;;;;23.30;9.57;;;0.40;63.40;;;;;;2509190;53;20996;-64
2024/01/10 06:42:31;;;;;;;22.10;10.68;;;0.40;63.40;;;;;;2512675;54;20954;-66
2024/01/10 06:44:59;;;;;;;19.67;9.40;;;0.40;63.50;;;;;;2510157;54;20985;-64
2024/01/10 06:47:26;;;;;;;22.65;9.57;;;0.30;63.40;;;;;;2509480;54;21740;-67
2024/01/10 06:49:53;;;;;;;20.98;9.43;;;0.30;63.40;;;;;;2283042;54;20996;-66
2024/01/10 06:52:21;;;;;;;21.25;9.43;;;0.30;63.50;;;;;;2525409;53;21047;-66
2024/01/10 06:54:59;;;;;;;17.98;8.45;;;0.30;63.50;;;;;;2512318;54;20984;-64
2024/01/10 06:57:27;;;;;;;19.17;8.80;;;0.20;63.40;;;;;;2277334;56;21273;-65
2024/01/10 06:59:53;;;;;;;20.50;8.52;;;0.20;63.40;;;;;;2284532;55;20949;-66
2024/01/10 07:02:32;;;;;;;19.42;9.00;;;0.10;63.30;;;;;;2292435;55;20983;-64
2024/01/10 07:05:03;;;;;;;19.05;8.70;;;0.10;63.30;;;;;;2510175;54;21870;-64
2024/01/10 07:07:35;;;;;;;24.75;10.63;;;0.10;63.40;;;;;;2510287;54;20924;-65
2024/01/10 07:10:05;;;;;;;25.23;11.45;;;0.10;63.40;;;;;;2509491;54;20996;-66
2024/01/10 07:12:35;;;;;;;29.58;12.30;;;0.00;63.30;;;;;;2277361;55;21237;-64
2024/01/10 07:15:03;;;;;;;27.02;13.50;;;0.00;63.50;;;;;;2277081;55;21012;-64
2024/01/10 07:17:29;;;;;;;32.67;15.10;;;0.00;63.60;;;;;;2276856;55;20972;-63
2024/01/10 07:19:56;;;;;;;32.50;16.75;;;0.00;63.60;;;;;;2283375;55;20997;-65
2024/01/10 07:22:23;;;;;;;29.30;13.02;;;-0.10;63.50;;;;;;2277575;55;21496;-64
2024/01/10 07:24:50;;;;;;;29.35;14.38;;;-0.10;63.60;;;;;;2277811;55;21020;-65
2024/01/10 07:27:21;;;;;;;25.17;12.77;;;-0.10;63.60;;;;;;2509815;54;21754;-65
2024/01/10 07:29:47;;;;;;;29.92;13.32;;;-0.10;63.70;;;;;;2512263;53;21545;-65
2024/01/10 07:32:13;;;;;;;30.27;12.98;;;-0.10;63.70;;;;;;2276580;56;20955;-65
2024/01/10 07:34:40;;;;;;;32.22;13.35;;;-0.20;63.70;;;;;;2512011;53;21396;-66
2024/01/10 07:37:09;;;;;;;27.98;11.38;;;-0.20;63.80;;;;;;2276258;54;20995;-64
2024/01/10 07:39:35;;;;;;;21.52;10.18;;;-0.20;63.90;;;;;;2302846;54;21018;-64
2024/01/10 07:42:02;;;;;;;21.67;9.77;;;-0.20;63.90;;;;;;2511532;53;21079;-66
2024/01/10 07:44:28;;;;;;;20.67;9.50;;;-0.20;63.90;;;;;;2277263;55;21625;-66
2024/01/10 07:46:55;;;;;;;19.75;8.88;;;-0.20;63.90;;;;;;2277403;55;21048;-66
2024/01/10 07:49:23;;;;;;;21.17;8.82;;;-0.20;64.00;;;;;;2508461;54;20990;-65
2024/01/10 07:51:50;;;;;;;19.80;8.50;;;-0.20;64.00;;;;;;2509030;54;21336;-65
2024/01/10 07:54:16;;;;;;;20.58;8.82;;;-0.20;64.00;;;;;;2277067;55;21501;-66
2024/01/10 07:56:43;;;;;;;21.58;9.73;;;-0.20;64.00;;;;;;2277191;55;20973;-64
2024/01/10 07:59:09;;;;;;;17.60;8.25;;;-0.20;64.10;;;;;;2277293;56;21691;-65
2024/01/10 08:01:37;;;;;;;19.60;9.15;;;-0.30;64.00;;;;;;2509627;55;20984;-64
2024/01/10 08:04:04;;;;;;;17.37;8.35;;;-0.20;64.20;;;;;;2276939;56;21252;-66
2024/01/10 08:06:30;;;;;;;20.98;8.52;;;-0.30;64.10;;;;;;2509294;54;20943;-65
2024/01/10 08:08:58;;;;;;;19.67;8.85;;;-0.30;64.20;;;;;;2281991;55;21724;-64
2024/01/10 08:11:24;;;;;;;25.65;10.32;;;-0.30;64.20;;;;;;2277723;55;21285;-65
2024/01/10 08:13:53;;;;;;;21.87;10.50;;;-0.30;64.20;;;;;;2277255;56;21545;-67
2024/01/10 08:16:21;;;;;;;24.52;10.88;;;-0.30;64.20;;;;;;2276247;55;20968;-65
2024/01/10 08:18:47;;;;;;;25.00;10.73;;;-0.20;64.50;;;;;;2277208;56;20972;-66
2024/01/10 08:21:15;;;;;;;23.00;10.23;;;-0.20;64.50;;;;;;2276523;56;21277;-64
2024/01/10 08:23:41;;;;;;;22.33;10.13;;;-0.20;64.60;;;;;;2279720;55;21026;-65
2024/01/10 08:26:08;;;;;;;23.17;10.13;;;-0.20;64.70;;;;;;2511142;54;21567;-64
2024/01/10 08:28:35;;;;;;;22.30;9.93;;;-0.20;64.80;;;;;;2276725;55;20944;-66
2024/01/10 08:31:01;;;;;;;24.00;10.93;;;-0.20;64.80;;;;;;2277434;55;22448;-66
2024/01/10 08:33:30;;;;;;;23.17;10.65;;;-0.20;64.80;;;;;;2276289;56;22546;-65
2024/01/10 08:35:59;;;;;;;21.92;10.13;;;-0.20;64.80;;;;;;2280202;56;21048;-67
2024/01/10 08:38:25;;;;;;;22.65;9.75;;;-0.10;64.90;;;;;;2272038;55;21504;-67
2024/01/10 08:40:51;;;;;;;21.17;9.75;;;-0.10;65.00;;;;;;2277616;55;20956;-64
2024/01/10 08:43:20;;;;;;;22.60;9.40;;;-0.10;65.00;;;;;;2509265;55;20940;-66
2024/01/10 08:45:51;;;;;;;21.90;9.82;;;-0.10;65.00;;;;;;2278112;55;21036;-65
2024/01/10 08:48:17;;;;;;;22.70;10.05;;;-0.10;65.00;;;;;;2277797;56;20984;-65
2024/01/10 08:50:44;;;;;;;19.60;9.27;;;-0.10;65.00;;;;;;2277071;55;21012;-64
2024/01/10 08:53:10;;;;;;;21.98;9.60;;;-0.10;65.00;;;;;;2511926;54;20965;-65
2024/01/10 08:55:39;;;;;;;22.62;10.20;;;-0.10;65.00;;;;;;2278244;55;21015;-66
2024/01/10 08:58:06;;;;;;;22.83;11.25;;;0.00;65.10;;;;;;2277144;55;21368;-67
2024/01/10 09:00:34;;;;;;;28.87;12.48;;;0.00;65.20;;;;;;2276679;55;21035;-66
2024/01/10 09:03:01;;;;;;;27.62;12.40;;;0.00;65.30;;;;;;2275726;55;21060;-66
2024/01/10 09:05:28;;;;;;;24.15;11.68;;;0.00;65.40;;;;;;2277269;56;21761;-64
2024/01/10 09:07:54;;;;;;;22.65;10.88;;;0.10;65.60;;;;;;2509528;54;21255;-65
2024/01/10 09:10:22;;;;;;;24.90;10.82;;;0.10;65.60;;;;;;2276308;56;21035;-66
2024/01/10 09:12:48;;;;;;;22.85;10.23;;;0.10;65.70;;;;;;2277046;56;20940;-65
2024/01/10 09:15:15;;;;;;;18.83;9.50;;;0.20;65.80;;;;;;2507978;54;21025;-65
2024/01/10 09:17:42;;;;;;;19.52;8.90;;;0.20;65.90;;;;;;2277791;55;21644;-64
2024/01/10 09:20:09;;;;;;;17.62;8.98;;;0.30;66.00;;;;;;2276662;56;21583;-66
2024/01/10 09:22:48;;;;;;;20.25;8.68;;;0.30;66.00;;;;;;2277255;55;21012;-65
2024/01/10 09:25:15;;;;;;;20.73;8.50;;;0.30;65.90;;;;;;2510003;54;21065;-66
2024/01/10 09:27:43;;;;;;;19.60;9.27;;;0.40;66.10;;;;;;2277990;55;21017;-65
2024/01/10 09:30:10;;;;;;;17.20;7.93;;;0.40;66.10;;;;;;2283029;55;21823;-65
2024/01/10 09:32:36;;;;;;;18.35;8.48;;;0.50;66.20;;;;;;2277306;55;21503;-65
2024/01/10 09:35:03;;;;;;;17.58;8.63;;;0.50;66.30;;;;;;2276950;55;20921;-66
2024/01/10 09:37:30;;;;;;;18.23;8.93;;;0.60;66.40;;;;;;2277622;55;21063;-64
2024/01/10 09:39:56;;;;;;;20.83;9.55;;;0.60;66.40;;;;;;2508395;55;20976;-66
2024/01/10 09:42:26;;;;;;;21.15;9.65;;;0.70;66.40;;;;;;2277198;55;20969;-66
2024/01/10 09:44:52;;;;;;;18.73;9.00;;;0.80;66.60;;;;;;2276111;55;21040;-65
2024/01/10 09:47:20;;;;;;;20.00;9.68;;;0.80;66.60;;;;;;2510268;54;20996;-65
2024/01/10 09:49:46;;;;;;;21.50;11.00;;;0.90;66.70;;;;;;2510604;53;20969;-66
2024/01/10 09:52:23;;;;;;;19.55;9.40;;;0.90;66.80;;;;;;2276795;55;21000;-66
2024/01/10 09:54:54;;;;;;;18.35;8.82;;;1.00;66.80;;;;;;2279178;56;21899;-66
2024/01/10 09:57:23;;;;;;;21.98;10.20;;;1.10;67.00;;;;;;2296775;55;21039;-67
2024/01/10 09:59:51;;;;;;;24.50;11.02;;;1.10;67.00;;;;;;2508641;55;21153;-66
2024/01/10 10:02:18;;;;;;;20.83;9.40;;;1.20;67.00;;;;;;2274440;56;20960;-65
2024/01/10 10:04:56;;;;;;;22.48;10.73;;;1.30;67.00;;;;;;2507958;54;21012;-66
2024/01/10 10:07:23;;;;;;;19.58;10.25;;;1.30;67.00;;;;;;2281056;55;20966;-67
2024/01/10 10:09:53;;;;;;;19.62;10.48;;;1.40;67.10;;;;;;2508601;54;20964;-66
2024/01/10 10:12:19;;;;;;;22.58;10.02;;;1.40;67.00;;;;;;2275964;56;20991;-65
2024/01/10 10:14:47;;;;;;;22.17;10.95;;;1.50;67.10;;;;;;2277361;55;20977;-65
2024/01/10 10:17:15;;;;;;;26.52;12.27;;;1.60;67.20;;;;;;2276415;56;20976;-66
2024/01/10 10:19:41;;;;;;;26.67;12.85;;;1.60;67.20;;;;;;2276722;55;21075;-68
2024/01/10 10:22:10;;;;;;;25.02;11.88;;;1.70;67.20;;;;;;2276876;55;21023;-66
2024/01/10 10:24:37;;;;;;;23.23;11.65;;;1.70;67.20;;;;;;2508550;55;20948;-68
2024/01/10 10:27:09;;;;;;;22.13;11.48;;;1.80;67.30;;;;;;2510533;53;21016;-66
2024/01/10 10:29:45;;;;;;;24.25;11.63;;;1.90;67.30;;;;;;2508230;55;21016;-66
2024/01/10 10:32:13;;;;;;;23.08;12.13;;;1.90;67.30;;;;;;2276019;55;21047;-66
2024/01/10 10:34:39;;;;;;;27.02;12.20;;;2.00;67.50;;;;;;2508879;54;21032;-66
2024/01/10 10:37:06;;;;;;;29.80;14.95;;;2.00;67.50;;;;;;2276556;55;21492;-66
2024/01/10 10:39:33;;;;;;;30.67;14.20;;;2.10;67.60;;;;;;2507940;54;20940;-65
2024/01/10 10:42:00;;;;;;;27.20;13.85;;;2.20;67.50;;;;;;2276335;55;21028;-67
2024/01/10 10:44:26;;;;;;;25.15;13.10;;;2.20;67.40;;;;;;2508874;55;21024;-66
2024/01/10 10:46:56;;;;;;;25.23;13.23;;;2.30;67.30;;;;;;2275984;56;20988;-65
2024/01/10 10:49:31;;;;;;;24.83;12.85;;;2.30;67.30;;;;;;2276545;55;20973;-67
2024/01/10 10:51:59;;;;;;;26.55;14.02;;;2.40;67.40;;;;;;2276352;56;21965;-65
2024/01/10 10:54:29;;;;;;;23.65;12.75;;;2.40;67.20;;;;;;2504542;54;20944;-67
2024/01/10 10:56:57;;;;;;;27.80;13.18;;;2.50;67.20;;;;;;2276963;55;21312;-67
2024/01/10 10:59:25;;;;;;;22.50;12.18;;;2.50;67.20;;;;;;2276283;56;21641;-67
2024/01/10 11:01:51;;;;;;;25.08;12.75;;;2.50;67.20;;;;;;2276053;56;21437;-65
2024/01/10 11:04:18;;;;;;;27.45;13.57;;;2.60;67.40;;;;;;2276308;55;21237;-65
2024/01/10 11:06:44;;;;;;;24.65;11.88;;;2.70;67.50;;;;;;2275809;56;20960;-66
2024/01/10 11:09:11;;;;;;;28.27;13.23;;;2.70;67.60;;;;;;2509313;54;20971;-66
2024/01/10 11:12:17;;;;;;;23.75;13.00;;;2.80;67.70;;;;;;2276342;55;21343;-65
2024/01/10 11:16:15;;;;;;;21.90;11.65;;;2.80;67.50;;;;;;2282293;55;21041;-65
2024/01/10 11:19:19;;;;;;;22.95;11.73;;;2.90;67.90;;;;;;2508611;54;21707;-66
2024/01/10 11:23:56;;;;;;;22.05;10.88;;;3.10;67.90;;;;;;2276339;56;21508;-68
2024/01/10 11:26:22;;;;;;;21.87;10.88;;;3.20;68.00;;;;;;2508028;54;21037;-65
2024/01/10 11:28:49;;;;;;;25.95;12.37;;;3.30;68.30;;;;;;2280610;55;21223;-67
2024/01/10 11:31:15;;;;;;;20.90;11.25;;;3.40;68.40;;;;;;2510683;53;21055;-67
2024/01/10 11:33:44;;;;;;;20.95;11.20;;;3.50;68.50;;;;;;2276230;55;20976;-67
2024/01/10 11:36:15;;;;;;;20.55;10.68;;;3.60;68.50;;;;;;2276418;55;20964;-66
2024/01/10 11:39:06;;;;;;;20.55;11.77;;;3.70;68.40;;;;;;2276821;56;21273;-67
2024/01/10 11:41:37;;;;;;;22.60;12.82;;;3.70;67.70;;;;;;2507768;54;20956;-65
2024/01/10 11:45:04;;;;;;;24.07;12.70;;;3.80;68.00;;;;;;2511000;53;21781;-66
2024/01/10 11:47:30;;;;;;;27.05;12.15;;;3.80;66.80;;;;;;2275907;55;21577;-65
2024/01/10 11:49:58;;;;;;;22.13;12.20;;;3.90;67.80;;;;;;2508274;55;20952;-66
2024/01/10 11:52:32;;;;;;;23.85;12.52;;;3.90;67.70;;;;;;2276593;55;20959;-68
2024/01/10 11:54:58;;;;;;;22.05;12.45;;;4.00;67.20;;;;;;2276546;55;20967;-66
2024/01/10 11:57:28;;;;;;;25.67;13.40;;;4.00;67.20;;;;;;2508905;55;20952;-65
2024/01/10 11:59:55;;;;;;;24.90;13.23;;;4.10;67.10;;;;;;2277033;55;20916;-64
2024/01/10 12:02:26;;;;;;;24.87;13.10;;;4.00;66.90;;;;;;2508800;54;20917;-67
2024/01/10 12:04:53;;;;;;;22.92;12.95;;;4.10;66.90;;;;;;2276775;56;20960;-65
2024/01/10 12:07:20;;;;;;;23.50;12.20;;;4.10;66.80;;;;;;2509006;54;20944;-65
2024/01/10 12:09:46;;;;;;;22.77;12.65;;;4.00;66.60;;;;;;2277060;56;21556;-66
2024/01/10 12:12:13;;;;;;;23.25;12.80;;;4.10;66.70;;;;;;2282997;54;20967;-67
2024/01/10 12:14:43;;;;;;;24.85;12.55;;;4.10;66.80;;;;;;2508679;54;20957;-66
2024/01/10 12:17:09;;;;;;;26.58;14.05;;;4.10;66.70;;;;;;2280546;55;21567;-68
2024/01/10 12:19:36;;;;;;;25.52;12.82;;;4.10;66.70;;;;;;2279118;55;20970;-68
2024/01/10 12:22:07;;;;;;;26.12;12.27;;;4.10;66.60;;;;;;2507880;54;20961;-64
2024/01/10 12:24:33;;;;;;;25.05;13.50;;;4.10;66.40;;;;;;2508925;54;20956;-66
2024/01/10 12:26:59;;;;;;;24.58;12.50;;;4.10;66.50;;;;;;2282487;55;20994;-68
2024/01/10 12:29:26;;;;;;;21.75;11.73;;;4.10;66.40;;;;;;2509390;54;22029;-68
2024/01/10 12:31:54;;;;;;;22.70;12.05;;;4.10;66.40;;;;;;2277164;55;20985;-65
2024/01/10 12:34:21;;;;;;;21.10;11.63;;;4.10;66.30;;;;;;2276278;56;20948;-66
2024/01/10 12:36:49;;;;;;;23.42;11.70;;;4.20;66.40;;;;;;2509513;54;20960;-68
2024/01/10 12:39:15;;;;;;;21.33;11.32;;;4.20;66.40;;;;;;2508827;54;21042;-67
2024/01/10 12:41:43;;;;;;;24.73;12.23;;;4.20;66.60;;;;;;2511190;54;20974;-67
2024/01/10 12:44:10;;;;;;;23.65;11.60;;;4.20;66.50;;;;;;2511275;54;20960;-67
2024/01/10 12:46:54;;;;;;;24.85;12.30;;;4.30;66.60;;;;;;2507397;54;21056;-65
2024/01/10 12:49:22;;;;;;;20.80;11.15;;;4.30;66.20;;;;;;2509418;54;20937;-67